sensor_id;sensor_type;location;lat;lon;timestamp;pressure;altitude;pressure_sealevel;temperature;humidity
11339;BME280;5724;42.684;23.252;2023-07-02T00:01:47;93749.78;;;17.11;100.00
11339;BME280;5724;42.684;23.252;2023-07-02T00:04:14;93756.00;;;17.15;100.00
11339;BME280;5724;42.684;23.252;2023-07-02T00:06:44;93753.31;;;17.11;100.00
11339;BME280;5724;42.684;23.252;2023-07-02T00:09:10;93745.63;;;16.96;100.00
11339;BME280;5724;42.684;23.252;2023-07-02T00:11:41;93757.31;;;17.07;100.00
11339;BME280;5724;42.684;23.252;2023-07-02T00:14:07;93740.34;;;17.08;100.00
11339;BME280;5724;42.684;23.252;2023-07-02T00:16:33;93734.84;;;17.05;100.00
11339;BME280;5724;42.684;23.252;2023-07-02T00:18:59;93726.94;;;17.07;100.00
11339;BME280;5724;42.684;23.252;2023-07-02T00:21:25;93731.22;;;17.11;100.00
11339;BME280;5724;42.684;23.252;2023-07-02T00:23:54;93735.56;;;17.12;100.00
11339;BME280;5724;42.684;23.252;2023-07-02T00:26:23;93739.50;;;17.11;100.00
11339;BME280;5724;42.684;23.252;2023-07-02T00:28:49;93741.53;;;17.07;100.00
11339;BME280;5724;42.684;23.252;2023-07-02T00:31:14;93756.38;;;17.17;100.00
11339;BME280;5724;42.684;23.252;2023-07-02T00:33:39;93752.53;;;17.11;100.00
11339;BME280;5724;42.684;23.252;2023-07-02T00:36:05;93747.00;;;17.11;100.00
11339;BME280;5724;42.684;23.252;2023-07-02T00:38:30;93751.06;;;17.03;100.00
11339;BME280;5724;42.684;23.252;2023-07-02T00:40:56;93763.25;;;17.05;100.00
11339;BME280;5724;42.684;23.252;2023-07-02T00:43:21;93762.28;;;17.19;100.00
11339;BME280;5724;42.684;23.252;2023-07-02T00:45:47;93770.25;;;17.13;100.00
11339;BME280;5724;42.684;23.252;2023-07-02T00:48:12;93763.25;;;17.05;100.00
11339;BME280;5724;42.684;23.252;2023-07-02T00:50:39;93770.28;;;17.10;100.00
11339;BME280;5724;42.684;23.252;2023-07-02T00:53:04;93762.47;;;17.05;100.00
11339;BME280;5724;42.684;23.252;2023-07-02T00:55:30;93757.22;;;16.83;100.00
11339;BME280;5724;42.684;23.252;2023-07-02T00:57:55;93762.22;;;16.92;100.00
11339;BME280;5724;42.684;23.252;2023-07-02T01:00:22;93754.03;;;16.85;100.00
11339;BME280;5724;42.684;23.252;2023-07-02T01:02:54;93742.94;;;16.88;100.00
11339;BME280;5724;42.684;23.252;2023-07-02T01:05:26;93752.03;;;16.89;100.00
11339;BME280;5724;42.684;23.252;2023-07-02T01:07:52;93748.56;;;16.81;100.00
11339;BME280;5724;42.684;23.252;2023-07-02T01:10:17;93747.25;;;16.55;100.00
11339;BME280;5724;42.684;23.252;2023-07-02T01:12:44;93745.22;;;16.59;100.00
11339;BME280;5724;42.684;23.252;2023-07-02T01:15:11;93739.81;;;16.52;100.00
11339;BME280;5724;42.684;23.252;2023-07-02T01:17:36;93734.72;;;16.51;100.00
11339;BME280;5724;42.684;23.252;2023-07-02T01:20:09;93726.03;;;16.52;100.00
11339;BME280;5724;42.684;23.252;2023-07-02T01:22:35;93719.97;;;16.65;100.00
11339;BME280;5724;42.684;23.252;2023-07-02T01:25:01;93690.00;;;16.67;100.00
11339;BME280;5724;42.684;23.252;2023-07-02T01:27:30;93704.00;;;16.83;100.00
11339;BME280;5724;42.684;23.252;2023-07-02T01:29:55;93711.00;;;16.91;100.00
11339;BME280;5724;42.684;23.252;2023-07-02T01:32:22;93719.97;;;16.99;100.00
11339;BME280;5724;42.684;23.252;2023-07-02T01:34:48;93713.19;;;17.03;100.00
11339;BME280;5724;42.684;23.252;2023-07-02T01:37:17;93722.84;;;17.19;100.00
11339;BME280;5724;42.684;23.252;2023-07-02T01:39:43;93718.78;;;17.27;100.00
11339;BME280;5724;42.684;23.252;2023-07-02T01:44:41;93708.31;;;17.41;100.00
11339;BME280;5724;42.684;23.252;2023-07-02T01:47:07;93732.28;;;17.48;100.00
11339;BME280;5724;42.684;23.252;2023-07-02T01:49:33;93728.19;;;17.56;100.00
11339;BME280;5724;42.684;23.252;2023-07-02T01:51:59;93714.63;;;17.42;100.00
11339;BME280;5724;42.684;23.252;2023-07-02T01:54:26;93730.00;;;17.43;100.00
11339;BME280;5724;42.684;23.252;2023-07-02T01:56:55;93715.06;;;17.37;100.00
11339;BME280;5724;42.684;23.252;2023-07-02T01:59:21;93713.91;;;17.38;100.00
11339;BME280;5724;42.684;23.252;2023-07-02T02:01:46;93694.44;;;17.45;100.00
11339;BME280;5724;42.684;23.252;2023-07-02T02:04:12;93711.75;;;17.49;100.00
11339;BME280;5724;42.684;23.252;2023-07-02T02:06:39;93704.03;;;17.37;100.00
11339;BME280;5724;42.684;23.252;2023-07-02T02:09:05;93692.97;;;17.37;100.00
11339;BME280;5724;42.684;23.252;2023-07-02T02:11:32;93712.81;;;17.32;100.00
11339;BME280;5724;42.684;23.252;2023-07-02T02:13:58;93700.19;;;17.31;100.00
11339;BME280;5724;42.684;23.252;2023-07-02T02:16:24;93701.84;;;17.25;100.00
11339;BME280;5724;42.684;23.252;2023-07-02T02:18:50;93701.91;;;17.21;100.00
11339;BME280;5724;42.684;23.252;2023-07-02T02:21:19;93688.53;;;17.20;100.00
11339;BME280;5724;42.684;23.252;2023-07-02T02:23:45;93692.06;;;17.20;100.00
11339;BME280;5724;42.684;23.252;2023-07-02T02:26:10;93686.97;;;17.19;100.00
11339;BME280;5724;42.684;23.252;2023-07-02T02:28:36;93685.34;;;17.21;100.00
11339;BME280;5724;42.684;23.252;2023-07-02T02:31:01;93667.59;;;17.22;100.00
11339;BME280;5724;42.684;23.252;2023-07-02T02:33:27;93667.66;;;17.19;100.00
11339;BME280;5724;42.684;23.252;2023-07-02T02:35:53;93673.94;;;17.19;100.00
11339;BME280;5724;42.684;23.252;2023-07-02T02:38:18;93662.94;;;17.15;100.00
11339;BME280;5724;42.684;23.252;2023-07-02T02:40:44;93676.75;;;17.15;100.00
11339;BME280;5724;42.684;23.252;2023-07-02T02:43:09;93679.50;;;17.15;100.00
11339;BME280;5724;42.684;23.252;2023-07-02T02:45:34;93679.81;;;17.21;100.00
11339;BME280;5724;42.684;23.252;2023-07-02T02:48:00;93701.28;;;17.10;100.00
11339;BME280;5724;42.684;23.252;2023-07-02T02:50:25;93700.66;;;16.99;100.00
11339;BME280;5724;42.684;23.252;2023-07-02T02:52:52;93706.13;;;17.02;100.00
11339;BME280;5724;42.684;23.252;2023-07-02T02:55:18;93700.19;;;17.04;100.00
11339;BME280;5724;42.684;23.252;2023-07-02T02:57:44;93708.94;;;16.99;100.00
11339;BME280;5724;42.684;23.252;2023-07-02T03:00:10;93708.25;;;16.91;100.00
11339;BME280;5724;42.684;23.252;2023-07-02T03:02:37;93699.97;;;16.91;100.00
11339;BME280;5724;42.684;23.252;2023-07-02T03:05:02;93672.66;;;16.70;100.00
11339;BME280;5724;42.684;23.252;2023-07-02T03:07:28;93699.84;;;16.98;100.00
11339;BME280;5724;42.684;23.252;2023-07-02T03:09:54;93694.34;;;16.98;100.00
11339;BME280;5724;42.684;23.252;2023-07-02T03:12:19;93688.94;;;16.91;100.00
11339;BME280;5724;42.684;23.252;2023-07-02T03:14:45;93677.25;;;16.80;100.00
11339;BME280;5724;42.684;23.252;2023-07-02T03:17:13;93700.91;;;16.77;100.00
11339;BME280;5724;42.684;23.252;2023-07-02T03:19:38;93713.50;;;16.82;100.00
11339;BME280;5724;42.684;23.252;2023-07-02T03:22:04;93718.59;;;16.83;100.00
11339;BME280;5724;42.684;23.252;2023-07-02T03:24:29;93732.94;;;16.68;100.00
11339;BME280;5724;42.684;23.252;2023-07-02T03:26:54;93730.13;;;16.75;100.00
11339;BME280;5724;42.684;23.252;2023-07-02T03:29:20;93729.34;;;16.74;100.00
11339;BME280;5724;42.684;23.252;2023-07-02T03:31:45;93733.16;;;16.84;100.00
11339;BME280;5724;42.684;23.252;2023-07-02T03:34:12;93729.16;;;16.88;100.00
11339;BME280;5724;42.684;23.252;2023-07-02T03:36:38;93726.81;;;16.87;100.00
11339;BME280;5724;42.684;23.252;2023-07-02T03:39:04;93730.69;;;16.93;100.00
11339;BME280;5724;42.684;23.252;2023-07-02T03:41:30;93718.53;;;16.87;100.00
11339;BME280;5724;42.684;23.252;2023-07-02T03:43:56;93722.75;;;16.99;100.00
11339;BME280;5724;42.684;23.252;2023-07-02T03:46:21;93714.03;;;17.00;100.00
11339;BME280;5724;42.684;23.252;2023-07-02T03:48:47;93715.09;;;17.10;100.00
11339;BME280;5724;42.684;23.252;2023-07-02T03:51:13;93716.50;;;17.22;100.00
11339;BME280;5724;42.684;23.252;2023-07-02T03:53:40;93707.84;;;17.20;100.00
11339;BME280;5724;42.684;23.252;2023-07-02T03:56:05;93710.56;;;17.23;100.00
11339;BME280;5724;42.684;23.252;2023-07-02T03:58:31;93714.34;;;17.33;100.00
11339;BME280;5724;42.684;23.252;2023-07-02T04:00:57;93720.50;;;17.44;100.00
11339;BME280;5724;42.684;23.252;2023-07-02T04:03:22;93725.34;;;17.36;100.00
11339;BME280;5724;42.684;23.252;2023-07-02T04:05:47;93718.59;;;17.41;100.00
11339;BME280;5724;42.684;23.252;2023-07-02T04:08:13;93709.69;;;17.30;100.00
11339;BME280;5724;42.684;23.252;2023-07-02T04:10:38;93716.69;;;17.34;100.00
11339;BME280;5724;42.684;23.252;2023-07-02T04:13:04;93722.91;;;17.42;100.00
11339;BME280;5724;42.684;23.252;2023-07-02T04:15:29;93729.94;;;17.46;100.00
11339;BME280;5724;42.684;23.252;2023-07-02T04:17:55;93749.47;;;17.59;100.00
11339;BME280;5724;42.684;23.252;2023-07-02T04:20:21;93749.06;;;17.61;100.00
11339;BME280;5724;42.684;23.252;2023-07-02T04:22:46;93750.44;;;17.49;100.00
11339;BME280;5724;42.684;23.252;2023-07-02T04:25:13;93761.34;;;17.56;100.00
11339;BME280;5724;42.684;23.252;2023-07-02T04:27:44;93757.44;;;17.54;100.00
11339;BME280;5724;42.684;23.252;2023-07-02T04:30:10;93757.50;;;17.50;100.00
11339;BME280;5724;42.684;23.252;2023-07-02T04:32:37;93756.03;;;17.42;100.00
11339;BME280;5724;42.684;23.252;2023-07-02T04:35:10;93763.44;;;17.22;100.00
11339;BME280;5724;42.684;23.252;2023-07-02T04:37:36;93769.31;;;17.24;100.00
11339;BME280;5724;42.684;23.252;2023-07-02T04:40:02;93777.59;;;17.24;100.00
11339;BME280;5724;42.684;23.252;2023-07-02T04:42:41;93782.06;;;17.14;100.00
11339;BME280;5724;42.684;23.252;2023-07-02T04:45:12;93784.72;;;17.21;100.00
11339;BME280;5724;42.684;23.252;2023-07-02T04:47:38;93777.53;;;17.27;100.00
11339;BME280;5724;42.684;23.252;2023-07-02T04:50:04;93776.22;;;17.39;100.00
11339;BME280;5724;42.684;23.252;2023-07-02T04:52:31;93777.81;;;17.36;100.00
11339;BME280;5724;42.684;23.252;2023-07-02T04:54:56;93782.00;;;17.48;100.00
11339;BME280;5724;42.684;23.252;2023-07-02T04:57:22;93779.25;;;17.48;100.00
11339;BME280;5724;42.684;23.252;2023-07-02T04:59:48;93780.03;;;17.49;100.00
11339;BME280;5724;42.684;23.252;2023-07-02T05:02:13;93780.53;;;17.40;100.00
11339;BME280;5724;42.684;23.252;2023-07-02T05:04:39;93779.88;;;17.59;100.00
11339;BME280;5724;42.684;23.252;2023-07-02T05:07:04;93790.44;;;17.64;100.00
11339;BME280;5724;42.684;23.252;2023-07-02T05:09:30;93775.03;;;17.67;100.00
11339;BME280;5724;42.684;23.252;2023-07-02T05:11:56;93785.53;;;17.79;100.00
11339;BME280;5724;42.684;23.252;2023-07-02T05:14:22;93793.31;;;17.84;100.00
11339;BME280;5724;42.684;23.252;2023-07-02T05:16:48;93799.88;;;17.94;100.00
11339;BME280;5724;42.684;23.252;2023-07-02T05:19:14;93798.53;;;18.06;99.29
11339;BME280;5724;42.684;23.252;2023-07-02T05:21:39;93795.44;;;18.00;98.93
11339;BME280;5724;42.684;23.252;2023-07-02T05:24:05;93795.38;;;18.03;98.73
11339;BME280;5724;42.684;23.252;2023-07-02T05:26:30;93801.78;;;18.24;97.88
11339;BME280;5724;42.684;23.252;2023-07-02T05:28:56;93807.13;;;18.35;98.02
11339;BME280;5724;42.684;23.252;2023-07-02T05:31:21;93790.63;;;18.51;97.39
11339;BME280;5724;42.684;23.252;2023-07-02T05:33:47;93788.44;;;18.62;97.12
11339;BME280;5724;42.684;23.252;2023-07-02T05:36:12;93800.31;;;18.39;97.24
11339;BME280;5724;42.684;23.252;2023-07-02T05:38:38;93803.22;;;18.55;97.00
11339;BME280;5724;42.684;23.252;2023-07-02T05:41:05;93807.22;;;18.51;96.22
11339;BME280;5724;42.684;23.252;2023-07-02T05:43:32;93810.22;;;18.60;95.38
11339;BME280;5724;42.684;23.252;2023-07-02T05:45:58;93817.69;;;18.40;95.20
11339;BME280;5724;42.684;23.252;2023-07-02T05:48:25;93816.53;;;18.60;95.18
11339;BME280;5724;42.684;23.252;2023-07-02T05:50:51;93822.25;;;18.50;96.28
11339;BME280;5724;42.684;23.252;2023-07-02T05:53:16;93827.09;;;18.46;97.88
11339;BME280;5724;42.684;23.252;2023-07-02T05:55:42;93815.09;;;18.52;97.32
11339;BME280;5724;42.684;23.252;2023-07-02T05:58:08;93829.16;;;18.65;96.59
11339;BME280;5724;42.684;23.252;2023-07-02T06:00:34;93821.22;;;18.67;96.37
11339;BME280;5724;42.684;23.252;2023-07-02T06:03:00;93823.47;;;18.49;96.51
11339;BME280;5724;42.684;23.252;2023-07-02T06:05:25;93823.72;;;18.58;96.48
11339;BME280;5724;42.684;23.252;2023-07-02T06:07:51;93810.97;;;18.64;96.04
11339;BME280;5724;42.684;23.252;2023-07-02T06:10:16;93805.81;;;18.66;95.74
11339;BME280;5724;42.684;23.252;2023-07-02T06:12:43;93804.81;;;18.76;94.16
11339;BME280;5724;42.684;23.252;2023-07-02T06:15:09;93796.03;;;18.58;95.92
11339;BME280;5724;42.684;23.252;2023-07-02T06:17:36;93790.41;;;18.65;95.58
11339;BME280;5724;42.684;23.252;2023-07-02T06:20:05;93789.00;;;18.77;95.22
11339;BME280;5724;42.684;23.252;2023-07-02T06:22:31;93781.19;;;18.72;94.88
11339;BME280;5724;42.684;23.252;2023-07-02T06:24:56;93777.38;;;18.85;94.31
11339;BME280;5724;42.684;23.252;2023-07-02T06:27:22;93787.44;;;18.76;95.91
11339;BME280;5724;42.684;23.252;2023-07-02T06:29:47;93789.66;;;18.84;95.86
11339;BME280;5724;42.684;23.252;2023-07-02T06:32:13;93787.44;;;18.96;94.67
11339;BME280;5724;42.684;23.252;2023-07-02T06:34:38;93788.44;;;19.05;94.43
11339;BME280;5724;42.684;23.252;2023-07-02T06:37:04;93791.00;;;19.16;92.98
11339;BME280;5724;42.684;23.252;2023-07-02T06:39:30;93787.50;;;19.32;92.42
11339;BME280;5724;42.684;23.252;2023-07-02T06:41:55;93787.03;;;19.53;92.00
11339;BME280;5724;42.684;23.252;2023-07-02T06:44:21;93772.28;;;19.60;91.17
11339;BME280;5724;42.684;23.252;2023-07-02T06:46:46;93783.56;;;19.69;91.36
11339;BME280;5724;42.684;23.252;2023-07-02T06:49:12;93777.84;;;19.76;90.19
11339;BME280;5724;42.684;23.252;2023-07-02T06:51:37;93771.75;;;19.65;89.33
11339;BME280;5724;42.684;23.252;2023-07-02T06:54:03;93772.63;;;19.62;89.70
11339;BME280;5724;42.684;23.252;2023-07-02T06:56:28;93773.63;;;19.52;90.50
11339;BME280;5724;42.684;23.252;2023-07-02T06:58:54;93785.91;;;19.70;89.60
11339;BME280;5724;42.684;23.252;2023-07-02T07:01:19;93786.84;;;19.64;88.56
11339;BME280;5724;42.684;23.252;2023-07-02T07:03:45;93791.75;;;19.56;88.95
11339;BME280;5724;42.684;23.252;2023-07-02T07:06:11;93794.66;;;19.69;89.34
11339;BME280;5724;42.684;23.252;2023-07-02T07:08:37;93793.44;;;19.86;89.18
11339;BME280;5724;42.684;23.252;2023-07-02T07:11:04;93792.28;;;19.67;89.07
11339;BME280;5724;42.684;23.252;2023-07-02T07:13:29;93792.38;;;19.64;89.37
11339;BME280;5724;42.684;23.252;2023-07-02T07:15:54;93791.25;;;19.61;87.92
11339;BME280;5724;42.684;23.252;2023-07-02T07:18:20;93769.81;;;19.82;87.34
11339;BME280;5724;42.684;23.252;2023-07-02T07:20:45;93778.56;;;20.13;87.07
11339;BME280;5724;42.684;23.252;2023-07-02T07:23:11;93787.56;;;20.33;87.76
11339;BME280;5724;42.684;23.252;2023-07-02T07:25:36;93791.91;;;20.50;86.62
11339;BME280;5724;42.684;23.252;2023-07-02T07:28:02;93791.31;;;20.43;86.49
11339;BME280;5724;42.684;23.252;2023-07-02T07:30:27;93788.81;;;20.48;88.24
11339;BME280;5724;42.684;23.252;2023-07-02T07:32:53;93788.63;;;20.39;88.91
11339;BME280;5724;42.684;23.252;2023-07-02T07:35:22;93778.56;;;20.45;89.36
11339;BME280;5724;42.684;23.252;2023-07-02T07:37:48;93779.06;;;20.40;89.96
11339;BME280;5724;42.684;23.252;2023-07-02T07:40:13;93772.69;;;20.11;90.70
11339;BME280;5724;42.684;23.252;2023-07-02T07:42:40;93772.69;;;20.11;90.53
11339;BME280;5724;42.684;23.252;2023-07-02T07:45:06;93781.50;;;20.22;91.26
11339;BME280;5724;42.684;23.252;2023-07-02T07:47:31;93780.22;;;20.10;92.54
11339;BME280;5724;42.684;23.252;2023-07-02T07:49:57;93785.34;;;20.28;92.20
11339;BME280;5724;42.684;23.252;2023-07-02T07:52:23;93780.34;;;20.36;89.54
11339;BME280;5724;42.684;23.252;2023-07-02T07:54:48;93783.06;;;20.39;90.61
11339;BME280;5724;42.684;23.252;2023-07-02T07:57:14;93784.44;;;20.64;89.71
11339;BME280;5724;42.684;23.252;2023-07-02T07:59:40;93779.78;;;20.90;88.58
11339;BME280;5724;42.684;23.252;2023-07-02T08:02:05;93776.88;;;20.93;88.59
11339;BME280;5724;42.684;23.252;2023-07-02T08:04:31;93785.28;;;21.06;85.21
11339;BME280;5724;42.684;23.252;2023-07-02T08:06:56;93780.72;;;21.12;86.24
11339;BME280;5724;42.684;23.252;2023-07-02T08:09:23;93748.19;;;21.12;84.73
11339;BME280;5724;42.684;23.252;2023-07-02T08:11:49;93773.66;;;21.53;83.06
11339;BME280;5724;42.684;23.252;2023-07-02T08:14:16;93777.97;;;21.79;81.59
11339;BME280;5724;42.684;23.252;2023-07-02T08:16:41;93782.44;;;22.02;80.61
11339;BME280;5724;42.684;23.252;2023-07-02T08:19:07;93771.88;;;22.22;77.61
11339;BME280;5724;42.684;23.252;2023-07-02T08:21:32;93772.41;;;22.43;78.84
11339;BME280;5724;42.684;23.252;2023-07-02T08:23:58;93776.00;;;22.65;77.69
11339;BME280;5724;42.684;23.252;2023-07-02T08:26:24;93767.28;;;22.76;74.67
11339;BME280;5724;42.684;23.252;2023-07-02T08:28:49;93769.16;;;22.92;73.52
11339;BME280;5724;42.684;23.252;2023-07-02T08:31:14;93773.00;;;23.29;72.63
11339;BME280;5724;42.684;23.252;2023-07-02T08:33:40;93778.56;;;23.51;70.63
11339;BME280;5724;42.684;23.252;2023-07-02T08:36:06;93784.00;;;23.76;70.78
11339;BME280;5724;42.684;23.252;2023-07-02T08:38:31;93768.44;;;23.97;70.07
11339;BME280;5724;42.684;23.252;2023-07-02T08:40:57;93773.56;;;23.98;68.54
11339;BME280;5724;42.684;23.252;2023-07-02T08:43:25;93774.72;;;24.19;69.65
11339;BME280;5724;42.684;23.252;2023-07-02T08:45:52;93769.94;;;24.29;69.75
11339;BME280;5724;42.684;23.252;2023-07-02T08:48:18;93766.13;;;24.36;69.89
11339;BME280;5724;42.684;23.252;2023-07-02T08:50:48;93770.63;;;24.33;68.95
11339;BME280;5724;42.684;23.252;2023-07-02T08:53:14;93776.56;;;24.63;68.13
11339;BME280;5724;42.684;23.252;2023-07-02T08:55:40;93777.19;;;24.76;66.47
11339;BME280;5724;42.684;23.252;2023-07-02T08:58:06;93768.66;;;24.89;66.92
11339;BME280;5724;42.684;23.252;2023-07-02T09:00:31;93759.03;;;24.99;67.06
11339;BME280;5724;42.684;23.252;2023-07-02T09:03:14;93749.59;;;25.05;63.49
11339;BME280;5724;42.684;23.252;2023-07-02T09:05:51;93761.09;;;25.07;63.16
11339;BME280;5724;42.684;23.252;2023-07-02T09:08:27;93758.91;;;25.39;63.81
11339;BME280;5724;42.684;23.252;2023-07-02T09:10:53;93758.25;;;25.44;63.23
11339;BME280;5724;42.684;23.252;2023-07-02T09:13:19;93756.53;;;25.56;62.90
11339;BME280;5724;42.684;23.252;2023-07-02T09:15:45;93737.53;;;25.78;61.36
11339;BME280;5724;42.684;23.252;2023-07-02T09:18:18;93758.81;;;25.66;60.59
11339;BME280;5724;42.684;23.252;2023-07-02T09:20:44;93753.59;;;25.50;60.75
11339;BME280;5724;42.684;23.252;2023-07-02T09:23:10;93750.19;;;25.37;61.51
11339;BME280;5724;42.684;23.252;2023-07-02T09:25:40;93756.25;;;24.99;62.12
11339;BME280;5724;42.684;23.252;2023-07-02T09:28:19;93754.31;;;24.41;64.06
11339;BME280;5724;42.684;23.252;2023-07-02T09:30:55;93766.91;;;24.45;64.27
11339;BME280;5724;42.684;23.252;2023-07-02T09:33:25;93769.88;;;24.11;65.02
11339;BME280;5724;42.684;23.252;2023-07-02T09:35:51;93753.44;;;23.73;65.67
11339;BME280;5724;42.684;23.252;2023-07-02T09:38:18;93768.03;;;24.17;65.01
11339;BME280;5724;42.684;23.252;2023-07-02T09:40:49;93764.13;;;24.54;61.36
11339;BME280;5724;42.684;23.252;2023-07-02T09:43:16;93759.66;;;24.66;59.79
11339;BME280;5724;42.684;23.252;2023-07-02T09:45:46;93763.28;;;25.03;58.58
11339;BME280;5724;42.684;23.252;2023-07-02T09:48:16;93753.31;;;25.39;59.86
11339;BME280;5724;42.684;23.252;2023-07-02T09:50:44;93753.09;;;25.61;53.69
11339;BME280;5724;42.684;23.252;2023-07-02T09:53:10;93760.38;;;25.77;49.99
11339;BME280;5724;42.684;23.252;2023-07-02T09:55:37;93754.31;;;25.87;50.32
11339;BME280;5724;42.684;23.252;2023-07-02T09:58:05;93761.69;;;26.09;50.38
11339;BME280;5724;42.684;23.252;2023-07-02T10:00:31;93751.47;;;26.30;49.26
11339;BME280;5724;42.684;23.252;2023-07-02T10:02:57;93745.84;;;26.39;51.20
11339;BME280;5724;42.684;23.252;2023-07-02T10:05:30;93744.19;;;26.56;57.10
11339;BME280;5724;42.684;23.252;2023-07-02T10:08:11;93737.91;;;26.37;50.41
11339;BME280;5724;42.684;23.252;2023-07-02T10:10:38;93745.53;;;26.37;46.05
11339;BME280;5724;42.684;23.252;2023-07-02T10:13:04;93744.19;;;26.56;48.25
11339;BME280;5724;42.684;23.252;2023-07-02T10:15:30;93745.75;;;26.57;44.06
11339;BME280;5724;42.684;23.252;2023-07-02T10:18:03;93732.16;;;26.65;45.49
11339;BME280;5724;42.684;23.252;2023-07-02T10:20:39;93713.16;;;26.84;42.96
11339;BME280;5724;42.684;23.252;2023-07-02T10:23:06;93726.56;;;26.79;43.42
11339;BME280;5724;42.684;23.252;2023-07-02T10:25:36;93719.84;;;27.01;45.11
11339;BME280;5724;42.684;23.252;2023-07-02T10:28:19;93709.13;;;26.99;43.54
11339;BME280;5724;42.684;23.252;2023-07-02T10:30:47;93717.53;;;26.99;42.68
11339;BME280;5724;42.684;23.252;2023-07-02T10:33:14;93711.03;;;26.78;45.46
11339;BME280;5724;42.684;23.252;2023-07-02T10:35:41;93710.16;;;26.48;44.74
11339;BME280;5724;42.684;23.252;2023-07-02T10:38:14;93717.44;;;26.55;47.38
11339;BME280;5724;42.684;23.252;2023-07-02T10:40:42;93725.31;;;26.80;48.58
11339;BME280;5724;42.684;23.252;2023-07-02T10:43:07;93716.56;;;26.88;47.93
11339;BME280;5724;42.684;23.252;2023-07-02T10:45:35;93722.59;;;26.71;46.09
11339;BME280;5724;42.684;23.252;2023-07-02T10:48:08;93722.91;;;26.73;45.33
11339;BME280;5724;42.684;23.252;2023-07-02T10:50:34;93711.03;;;27.02;45.16
11339;BME280;5724;42.684;23.252;2023-07-02T10:53:00;93718.16;;;26.79;45.56
11339;BME280;5724;42.684;23.252;2023-07-02T10:55:27;93717.84;;;26.30;46.28
11339;BME280;5724;42.684;23.252;2023-07-02T10:58:06;93711.16;;;26.03;46.11
11339;BME280;5724;42.684;23.252;2023-07-02T11:00:33;93706.41;;;26.18;49.27
11339;BME280;5724;42.684;23.252;2023-07-02T11:02:59;93707.00;;;26.56;45.82
11339;BME280;5724;42.684;23.252;2023-07-02T11:05:25;93710.13;;;26.72;44.94
11339;BME280;5724;42.684;23.252;2023-07-02T11:07:50;93710.53;;;26.80;45.84
11339;BME280;5724;42.684;23.252;2023-07-02T11:10:23;93711.06;;;26.93;46.15
11339;BME280;5724;42.684;23.252;2023-07-02T11:12:49;93708.06;;;26.97;45.91
11339;BME280;5724;42.684;23.252;2023-07-02T11:15:16;93712.34;;;26.68;46.24
11339;BME280;5724;42.684;23.252;2023-07-02T11:17:45;93704.06;;;25.84;48.82
11339;BME280;5724;42.684;23.252;2023-07-02T11:20:12;93716.13;;;25.48;50.09
11339;BME280;5724;42.684;23.252;2023-07-02T11:22:39;93722.16;;;24.18;59.89
11339;BME280;5724;42.684;23.252;2023-07-02T11:25:16;93725.38;;;23.67;64.92
11339;BME280;5724;42.684;23.252;2023-07-02T11:27:42;93740.03;;;22.71;70.23
11339;BME280;5724;42.684;23.252;2023-07-02T11:30:08;93725.88;;;22.65;72.11
11339;BME280;5724;42.684;23.252;2023-07-02T11:32:50;93709.56;;;22.54;71.45
11339;BME280;5724;42.684;23.252;2023-07-02T11:35:16;93751.63;;;22.09;71.78
11339;BME280;5724;42.684;23.252;2023-07-02T11:37:41;93751.19;;;21.85;71.87
11339;BME280;5724;42.684;23.252;2023-07-02T11:40:08;93732.38;;;21.51;69.84
11339;BME280;5724;42.684;23.252;2023-07-02T11:42:33;93742.06;;;21.59;71.44
11339;BME280;5724;42.684;23.252;2023-07-02T11:44:59;93745.59;;;21.47;69.05
11339;BME280;5724;42.684;23.252;2023-07-02T11:47:24;93744.94;;;21.56;68.23
11339;BME280;5724;42.684;23.252;2023-07-02T11:49:52;93740.50;;;21.71;67.98
11339;BME280;5724;42.684;23.252;2023-07-02T11:52:18;93739.19;;;21.63;66.78
11339;BME280;5724;42.684;23.252;2023-07-02T11:54:43;93743.59;;;21.60;68.56
11339;BME280;5724;42.684;23.252;2023-07-02T11:57:09;93728.72;;;21.54;69.27
11339;BME280;5724;42.684;23.252;2023-07-02T11:59:34;93733.25;;;21.48;71.02
11339;BME280;5724;42.684;23.252;2023-07-02T12:02:01;93729.06;;;21.56;73.98
11339;BME280;5724;42.684;23.252;2023-07-02T12:04:27;93722.72;;;21.56;75.06
11339;BME280;5724;42.684;23.252;2023-07-02T12:06:52;93723.72;;;21.62;76.73
11339;BME280;5724;42.684;23.252;2023-07-02T12:09:19;93718.38;;;21.55;77.06
11339;BME280;5724;42.684;23.252;2023-07-02T12:11:44;93725.94;;;21.67;77.96
11339;BME280;5724;42.684;23.252;2023-07-02T12:14:11;93726.06;;;21.63;78.40
11339;BME280;5724;42.684;23.252;2023-07-02T12:16:36;93722.91;;;21.61;80.78
11339;BME280;5724;42.684;23.252;2023-07-02T12:19:02;93735.06;;;21.93;81.38
11339;BME280;5724;42.684;23.252;2023-07-02T12:21:27;93744.72;;;22.26;81.93
11339;BME280;5724;42.684;23.252;2023-07-02T12:23:53;93742.84;;;22.58;81.17
11339;BME280;5724;42.684;23.252;2023-07-02T12:26:19;93747.19;;;22.94;80.85
11339;BME280;5724;42.684;23.252;2023-07-02T12:28:44;93746.47;;;23.24;83.54
11339;BME280;5724;42.684;23.252;2023-07-02T12:31:10;93746.66;;;23.52;81.78
11339;BME280;5724;42.684;23.252;2023-07-02T12:33:38;93745.09;;;23.51;79.17
11339;BME280;5724;42.684;23.252;2023-07-02T12:36:03;93745.06;;;23.73;78.50
11339;BME280;5724;42.684;23.252;2023-07-02T12:38:29;93748.06;;;23.78;72.61
11339;BME280;5724;42.684;23.252;2023-07-02T12:40:54;93751.66;;;23.88;72.15
11339;BME280;5724;42.684;23.252;2023-07-02T12:43:20;93742.56;;;23.96;73.28
11339;BME280;5724;42.684;23.252;2023-07-02T12:45:45;93722.31;;;24.14;74.14
11339;BME280;5724;42.684;23.252;2023-07-02T12:48:11;93740.22;;;24.35;72.57
11339;BME280;5724;42.684;23.252;2023-07-02T12:50:37;93746.13;;;24.46;72.50
11339;BME280;5724;42.684;23.252;2023-07-02T12:53:03;93734.34;;;24.79;72.23
11339;BME280;5724;42.684;23.252;2023-07-02T12:55:29;93741.50;;;24.98;69.53